Time;durP1;ratioP1;P1;durP2;ratioP2;P2;SDS_P1;SDS_P2;PMS_P1;PMS_P2;Temp;Humidity;BMP_temperature;BMP_pressure;BME280_temperature;BME280_humidity;BME280_pressure;Samples;Min_cycle;Max_cycle;Signal;HPM_P1;HPM_P2
2022/01/16 00:01:06;;;;;;;7.68;4.70;;;14.50;91.90;;;;;;1997450;28;20170;-71
2022/01/16 00:04:34;;;;;;;7.57;5.10;;;14.50;92.00;;;;;;1997600;28;20545;-71
2022/01/16 00:05:32;;;;;;;8.18;4.90;;;14.50;92.00;;;;;;1997496;28;20173;-71
2022/01/16 00:06:31;;;;;;;6.03;4.33;;;14.50;92.10;;;;;;1997522;28;20228;-72
2022/01/16 00:07:29;;;;;;;7.33;4.03;;;14.50;92.10;;;;;;1997300;28;20185;-72
2022/01/16 00:08:29;;;;;;;8.40;5.00;;;14.50;92.10;;;;;;1997451;28;20256;-71
2022/01/16 00:09:28;;;;;;;8.27;5.22;;;14.50;92.20;;;;;;2004683;28;20484;-71
2022/01/16 00:10:27;;;;;;;5.57;4.05;;;14.50;92.20;;;;;;2004593;28;20209;-71
2022/01/16 00:11:26;;;;;;;6.07;4.30;;;14.50;92.20;;;;;;1997575;28;20222;-71
2022/01/16 00:12:25;;;;;;;6.05;4.60;;;14.50;92.20;;;;;;1997367;28;20300;-72
2022/01/16 00:13:23;;;;;;;7.43;4.83;;;14.50;92.20;;;;;;1997324;28;20584;-72
2022/01/16 00:14:22;;;;;;;9.63;5.53;;;14.40;92.40;;;;;;1996629;28;20181;-72
2022/01/16 00:15:23;;;;;;;9.50;5.77;;;14.40;92.60;;;;;;1997105;28;20228;-72
2022/01/16 00:16:22;;;;;;;6.90;4.47;;;14.40;93.70;;;;;;1997985;28;20193;-72
2022/01/16 00:17:23;;;;;;;7.45;5.10;;;14.40;95.10;;;;;;1998049;28;20224;-72
2022/01/16 00:18:28;;;;;;;14.02;5.43;;;14.40;94.60;;;;;;1997888;28;20176;-72
2022/01/16 00:19:27;;;;;;;7.70;4.47;;;14.40;94.30;;;;;;1997992;28;20632;-71
2022/01/16 00:20:26;;;;;;;6.47;4.70;;;14.40;93.90;;;;;;1998213;28;20300;-72
2022/01/16 00:21:29;;;;;;;7.10;4.68;;;14.40;93.70;;;;;;2005515;28;20683;-71
2022/01/16 00:22:32;;;;;;;7.07;5.30;;;14.40;93.60;;;;;;2005349;28;20448;-71
2022/01/16 00:23:31;;;;;;;8.70;5.40;;;14.40;93.70;;;;;;1997395;28;20178;-72
2022/01/16 00:24:29;;;;;;;8.90;5.17;;;14.40;93.60;;;;;;1997233;28;20233;-72
2022/01/16 00:25:28;;;;;;;10.73;6.33;;;14.40;93.60;;;;;;1997174;28;20353;-72
2022/01/16 00:26:26;;;;;;;10.80;5.70;;;14.40;93.80;;;;;;1997170;28;20197;-72
2022/01/16 00:27:25;;;;;;;7.30;5.40;;;14.40;93.70;;;;;;1997281;28;20166;-72
2022/01/16 00:28:24;;;;;;;11.27;4.50;;;14.40;93.50;;;;;;1997195;28;20188;-72
2022/01/16 00:29:22;;;;;;;9.23;6.03;;;14.50;93.40;;;;;;1996636;28;20669;-72
2022/01/16 00:30:21;;;;;;;7.17;4.67;;;14.40;93.20;;;;;;1996708;28;20204;-71
2022/01/16 00:31:23;;;;;;;8.07;4.90;;;14.50;93.10;;;;;;1996595;28;20293;-72
2022/01/16 00:32:21;;;;;;;8.70;5.07;;;14.50;93.10;;;;;;1997317;28;20534;-72
2022/01/16 00:33:20;;;;;;;8.77;5.53;;;14.40;92.80;;;;;;1997173;28;20180;-72
2022/01/16 00:34:18;;;;;;;7.90;5.30;;;14.50;92.80;;;;;;1997159;28;20181;-72
2022/01/16 00:35:16;;;;;;;6.97;5.30;;;14.50;92.90;;;;;;1997305;28;20169;-72
2022/01/16 00:36:17;;;;;;;6.10;4.70;;;14.50;93.00;;;;;;1997183;28;20240;-72
2022/01/16 00:37:16;;;;;;;7.90;5.78;;;14.50;93.20;;;;;;1997161;28;20641;-70
2022/01/16 00:38:14;;;;;;;8.20;5.57;;;14.50;93.30;;;;;;1997253;28;20170;-71
2022/01/16 00:39:13;;;;;;;9.97;4.30;;;14.50;93.70;;;;;;1997209;28;20725;-70
2022/01/16 00:40:12;;;;;;;7.77;5.10;;;14.50;94.40;;;;;;1997179;28;20480;-70
2022/01/16 00:41:11;;;;;;;7.75;4.50;;;14.50;93.70;;;;;;1997141;28;20181;-72
2022/01/16 00:42:10;;;;;;;6.55;4.70;;;14.50;93.30;;;;;;1997104;28;20182;-73
2022/01/16 00:43:11;;;;;;;9.73;5.33;;;14.50;93.30;;;;;;1997216;28;20220;-72
2022/01/16 00:44:11;;;;;;;10.73;4.93;;;14.40;93.20;;;;;;1997172;28;20174;-72
2022/01/16 00:45:10;;;;;;;8.00;4.90;;;14.50;93.20;;;;;;1997220;28;20203;-73
2022/01/16 00:46:09;;;;;;;9.23;5.60;;;14.50;93.20;;;;;;1997120;28;20178;-72
2022/01/16 00:47:07;;;;;;;6.97;5.00;;;14.50;93.30;;;;;;1997120;28;20836;-73
2022/01/16 00:48:07;;;;;;;6.30;4.67;;;14.40;93.20;;;;;;1997262;28;20180;-73
2022/01/16 00:49:05;;;;;;;8.98;4.80;;;14.50;93.30;;;;;;1997044;28;20177;-72
2022/01/16 00:50:04;;;;;;;12.93;4.90;;;14.40;93.40;;;;;;1997075;28;20669;-71
2022/01/16 00:51:03;;;;;;;7.28;4.75;;;14.50;93.60;;;;;;1997090;28;20205;-71
2022/01/16 00:52:02;;;;;;;6.50;5.20;;;14.40;93.80;;;;;;1997073;28;20577;-70
2022/01/16 00:53:03;;;;;;;6.22;4.63;;;14.50;94.20;;;;;;1997017;28;20184;-70
2022/01/16 00:54:01;;;;;;;9.68;4.88;;;14.50;94.30;;;;;;1997201;28;20173;-70
2022/01/16 00:55:03;;;;;;;7.03;4.73;;;14.50;94.00;;;;;;1996399;28;20240;-71
2022/01/16 00:56:02;;;;;;;7.63;5.18;;;14.50;93.70;;;;;;1996366;28;20189;-71
2022/01/16 00:57:00;;;;;;;9.13;5.27;;;14.50;93.50;;;;;;1996875;28;20201;-71
2022/01/16 00:57:59;;;;;;;5.90;4.73;;;14.50;93.40;;;;;;1996367;28;20244;-71
2022/01/16 00:58:57;;;;;;;5.80;4.23;;;14.50;93.40;;;;;;1996526;28;20260;-71
2022/01/16 00:59:56;;;;;;;8.90;4.80;;;14.50;93.40;;;;;;1996968;28;20570;-71
2022/01/16 01:00:54;;;;;;;8.73;4.70;;;14.50;93.40;;;;;;1996814;28;20260;-71
2022/01/16 01:01:54;;;;;;;4.80;3.47;;;14.50;93.30;;;;;;1997086;28;20201;-71
2022/01/16 01:02:54;;;;;;;9.05;3.88;;;14.50;93.30;;;;;;1997202;28;20300;-71
2022/01/16 01:03:52;;;;;;;6.53;4.75;;;14.40;93.20;;;;;;2004375;28;20238;-71
2022/01/16 01:04:51;;;;;;;6.20;4.87;;;14.40;93.00;;;;;;1996459;28;20240;-71
2022/01/16 01:05:50;;;;;;;11.98;4.65;;;14.50;91.60;;;;;;1996139;28;20197;-71
2022/01/16 01:06:50;;;;;;;6.33;4.47;;;14.50;91.70;;;;;;1996768;28;20199;-71
2022/01/16 01:07:49;;;;;;;6.45;5.15;;;14.40;91.60;;;;;;1997302;28;20178;-71
2022/01/16 01:08:47;;;;;;;7.83;4.37;;;14.50;91.70;;;;;;1997201;28;20185;-71
2022/01/16 01:09:46;;;;;;;5.33;4.13;;;14.50;91.80;;;;;;2004364;28;20532;-71
2022/01/16 01:10:49;;;;;;;6.13;4.80;;;14.50;91.80;;;;;;2004104;28;20307;-71
2022/01/16 01:11:50;;;;;;;8.95;5.10;;;14.50;91.90;;;;;;1997025;28;20173;-71
2022/01/16 01:12:52;;;;;;;5.00;4.07;;;14.40;91.90;;;;;;1996400;28;20518;-71
2022/01/16 01:15:08;;;;;;;6.28;4.38;;;14.40;92.10;;;;;;1996831;28;20633;-71
2022/01/16 01:16:14;;;;;;;7.85;5.10;;;14.40;92.30;;;;;;1997063;28;20146;-71
2022/01/16 01:17:20;;;;;;;6.65;4.32;;;14.50;93.10;;;;;;1997101;28;20150;-71
2022/01/16 01:18:20;;;;;;;6.60;4.55;;;14.40;92.00;;;;;;1996366;28;20169;-71
2022/01/16 01:19:22;;;;;;;7.47;4.50;;;14.40;92.50;;;;;;1996457;28;20665;-71
2022/01/16 01:20:23;;;;;;;6.10;4.25;;;14.40;92.70;;;;;;1997065;28;20220;-71
2022/01/16 01:21:28;;;;;;;7.80;4.68;;;14.50;93.00;;;;;;1997042;28;20664;-71
2022/01/16 01:22:27;;;;;;;6.32;4.20;;;14.40;93.10;;;;;;2004284;28;20235;-71
2022/01/16 01:23:25;;;;;;;5.73;4.10;;;14.50;92.80;;;;;;2003907;28;20237;-71
2022/01/16 01:24:27;;;;;;;6.03;4.47;;;14.50;94.20;;;;;;1996255;28;20177;-71
2022/01/16 01:25:25;;;;;;;9.13;5.05;;;14.40;92.00;;;;;;1996379;28;20209;-71
2022/01/16 01:26:29;;;;;;;5.90;4.60;;;14.40;92.40;;;;;;1996923;28;20567;-71
2022/01/16 01:27:31;;;;;;;5.38;3.72;;;14.40;93.70;;;;;;1997215;28;20261;-71
2022/01/16 01:28:29;;;;;;;5.40;4.10;;;14.40;92.60;;;;;;1996283;28;20178;-71
2022/01/16 01:29:30;;;;;;;8.37;4.97;;;14.40;92.50;;;;;;1996423;28;20550;-71
2022/01/16 01:30:30;;;;;;;8.23;4.93;;;14.40;92.80;;;;;;1996937;28;20186;-72
2022/01/16 01:31:30;;;;;;;6.97;4.80;;;14.40;92.40;;;;;;1996924;28;20197;-72
2022/01/16 01:32:31;;;;;;;6.20;4.18;;;14.40;93.50;;;;;;1996969;28;20186;-71
2022/01/16 01:33:30;;;;;;;7.82;4.75;;;14.40;92.50;;;;;;1996813;28;20205;-71
2022/01/16 01:34:30;;;;;;;6.40;4.37;;;14.40;93.00;;;;;;1996881;28;20219;-71
2022/01/16 01:35:30;;;;;;;6.45;4.43;;;14.50;92.50;;;;;;1996933;28;20162;-71
2022/01/16 01:36:30;;;;;;;6.43;4.60;;;14.40;94.00;;;;;;1996837;28;20284;-71
2022/01/16 01:37:28;;;;;;;6.45;4.15;;;14.50;92.00;;;;;;1996855;28;20178;-71
2022/01/16 01:38:27;;;;;;;6.17;4.70;;;14.40;91.80;;;;;;1996892;28;20178;-71
2022/01/16 01:39:26;;;;;;;8.00;4.67;;;14.40;91.80;;;;;;1997011;28;20213;-71
2022/01/16 01:40:26;;;;;;;6.85;4.05;;;14.50;91.90;;;;;;1996978;28;20555;-71
2022/01/16 01:41:27;;;;;;;8.15;4.15;;;14.40;91.90;;;;;;1996859;28;20182;-71
2022/01/16 01:42:41;;;;;;;6.05;4.00;;;14.40;92.00;;;;;;1996779;28;20292;-70
2022/01/16 01:51:15;;;;;;;6.00;4.63;;;14.40;92.40;;;;;;1996608;28;20194;-71
2022/01/16 01:52:14;;;;;;;5.13;3.93;;;14.40;93.00;;;;;;1996931;28;20162;-72
2022/01/16 01:53:14;;;;;;;4.73;3.80;;;14.40;92.00;;;;;;1996837;28;20419;-72
2022/01/16 01:54:14;;;;;;;7.13;4.55;;;14.40;92.10;;;;;;1996917;28;20652;-71
2022/01/16 01:55:12;;;;;;;4.88;3.88;;;14.40;92.20;;;;;;1996823;28;20173;-72
2022/01/16 01:56:13;;;;;;;6.93;4.33;;;14.40;93.00;;;;;;1996947;28;20242;-71
2022/01/16 01:57:12;;;;;;;6.90;4.63;;;14.40;92.00;;;;;;1996892;28;20159;-72
2022/01/16 01:58:14;;;;;;;4.87;3.93;;;14.40;92.30;;;;;;1996700;28;20169;-71
2022/01/16 01:59:13;;;;;;;6.60;4.45;;;14.40;92.20;;;;;;1996854;28;20440;-71
2022/01/16 02:00:17;;;;;;;6.20;3.93;;;14.40;92.70;;;;;;1996810;28;20185;-71
2022/01/16 02:01:16;;;;;;;7.80;4.47;;;14.40;92.30;;;;;;1996816;28;20521;-71
2022/01/16 02:02:15;;;;;;;6.90;3.97;;;14.40;92.90;;;;;;1996107;28;20185;-72
2022/01/16 02:03:23;;;;;;;6.50;4.63;;;14.40;92.30;;;;;;1996431;28;20436;-72
2022/01/16 02:04:22;;;;;;;7.78;5.05;;;14.40;92.50;;;;;;1996201;28;20173;-71
2022/01/16 02:05:20;;;;;;;6.80;4.27;;;14.40;92.60;;;;;;1996158;28;20198;-72
2022/01/16 02:06:22;;;;;;;6.80;3.83;;;14.40;92.60;;;;;;1996675;28;20641;-72
2022/01/16 02:07:21;;;;;;;5.82;3.97;;;14.40;92.60;;;;;;1996862;28;20561;-72
2022/01/16 02:08:20;;;;;;;6.60;4.27;;;14.40;93.00;;;;;;1996692;28;20186;-72
2022/01/16 02:09:20;;;;;;;6.33;4.60;;;14.40;92.40;;;;;;1996716;28;20177;-72
2022/01/16 02:10:18;;;;;;;6.43;4.80;;;14.40;92.40;;;;;;1996029;28;20700;-71
2022/01/16 02:11:18;;;;;;;7.10;4.30;;;14.40;92.80;;;;;;1988153;28;20240;-72
2022/01/16 02:12:17;;;;;;;6.20;4.22;;;14.40;92.60;;;;;;1995730;28;20158;-71
2022/01/16 02:13:29;;;;;;;6.40;4.30;;;14.40;92.80;;;;;;1996623;28;20186;-72
2022/01/16 02:14:32;;;;;;;6.80;4.10;;;14.40;92.30;;;;;;1996855;28;20150;-71
2022/01/16 02:30:18;;;;;;;5.40;4.07;;;14.40;92.60;;;;;;1998499;28;20162;-71
2022/01/16 02:31:14;;;;;;;6.65;4.43;;;14.40;92.60;;;;;;1998177;28;20193;-71
2022/01/16 02:32:39;;;;;;;5.07;4.00;;;14.40;92.50;;;;;;1998408;28;20200;-71
2022/01/16 02:34:46;;;;;;;5.32;4.05;;;14.30;92.50;;;;;;1998365;28;20163;-72
2022/01/16 02:35:47;;;;;;;7.32;4.38;;;14.30;92.50;;;;;;1998183;28;20508;-71
2022/01/16 02:36:49;;;;;;;5.38;4.18;;;14.40;92.50;;;;;;1998166;28;20240;-72
2022/01/16 02:37:48;;;;;;;5.50;4.50;;;14.40;92.50;;;;;;1998096;28;20176;-72
2022/01/16 02:38:47;;;;;;;7.10;4.03;;;14.40;92.50;;;;;;2005415;28;20184;-71
2022/01/16 02:39:50;;;;;;;4.70;4.18;;;14.40;92.50;;;;;;2005530;28;20647;-72
2022/01/16 02:40:57;;;;;;;6.25;4.40;;;14.40;92.50;;;;;;1998149;28;20517;-71
2022/01/16 02:41:58;;;;;;;7.63;4.75;;;14.40;92.50;;;;;;1998285;28;20249;-72
2022/01/16 02:42:56;;;;;;;5.30;4.40;;;14.40;92.60;;;;;;1998168;28;20170;-72
2022/01/16 02:43:56;;;;;;;5.13;3.70;;;14.40;92.60;;;;;;1998132;28;20534;-71
2022/01/16 02:45:03;;;;;;;6.88;3.95;;;14.40;92.50;;;;;;1998085;28;20249;-72
2022/01/16 02:47:17;;;;;;;4.95;3.55;;;14.40;92.90;;;;;;1998259;28;20201;-71
2022/01/16 02:48:17;;;;;;;4.45;3.90;;;14.40;92.60;;;;;;1998219;28;20158;-72
2022/01/16 02:49:22;;;;;;;5.28;4.32;;;14.40;92.30;;;;;;1997977;28;20174;-72
2022/01/16 02:50:20;;;;;;;6.45;4.10;;;14.40;92.60;;;;;;1998186;28;20614;-72
2022/01/16 02:51:21;;;;;;;4.60;3.97;;;14.40;92.30;;;;;;1997888;28;20296;-71
2022/01/16 02:52:25;;;;;;;6.85;4.20;;;14.40;92.50;;;;;;1997946;28;20214;-72
2022/01/16 02:53:25;;;;;;;6.47;3.92;;;14.40;93.20;;;;;;1998132;28;20173;-71
2022/01/16 02:54:26;;;;;;;4.47;3.65;;;14.40;92.80;;;;;;1998145;28;20199;-72
2022/01/16 02:55:24;;;;;;;5.22;4.10;;;14.30;93.50;;;;;;1998023;28;20546;-72
2022/01/16 02:56:23;;;;;;;5.60;3.80;;;14.40;93.20;;;;;;1998071;28;20200;-71
2022/01/16 02:57:22;;;;;;;4.57;3.43;;;;;;;;;;1998253;28;20172;-72
2022/01/16 02:58:21;;;;;;;6.03;3.90;;;14.40;94.30;;;;;;1998103;28;20412;-71
2022/01/16 02:59:22;;;;;;;5.03;4.17;;;;;;;;;;1998125;28;20170;-71
2022/01/16 03:00:24;;;;;;;6.38;4.68;;;14.40;94.10;;;;;;1997997;28;20161;-71
2022/01/16 03:01:22;;;;;;;5.13;3.88;;;14.40;94.30;;;;;;1997982;28;20543;-71
2022/01/16 03:02:23;;;;;;;5.87;4.17;;;14.40;92.70;;;;;;1998179;28;20174;-71
2022/01/16 03:03:26;;;;;;;7.70;4.35;;;14.50;93.00;;;;;;1998133;28;20247;-71
2022/01/16 03:04:31;;;;;;;4.95;3.72;;;14.50;93.40;;;;;;1997256;28;20638;-72
2022/01/16 03:05:29;;;;;;;5.40;3.90;;;14.40;95.00;;;;;;1997473;28;20218;-71
2022/01/16 03:06:28;;;;;;;6.43;4.10;;;14.50;93.30;;;;;;1997921;28;20252;-71
2022/01/16 03:07:27;;;;;;;5.50;3.85;;;14.50;93.00;;;;;;1997896;28;20182;-71
2022/01/16 03:08:26;;;;;;;6.37;4.03;;;14.50;92.30;;;;;;1997981;28;20182;-71
2022/01/16 03:09:28;;;;;;;5.40;4.83;;;;;;;;;;1997880;28;20542;-72
2022/01/16 03:10:52;;;;;;;4.65;3.53;;;;;;;;;;1997912;28;20843;-72
2022/01/16 03:11:51;;;;;;;4.18;3.53;;;;;;;;;;1998011;28;20173;-71
2022/01/16 03:12:50;;;;;;;4.43;3.67;;;14.50;88.40;;;;;;1998115;28;20173;-71
2022/01/16 03:13:50;;;;;;;5.00;3.72;;;14.50;88.60;;;;;;2005148;28;20404;-71
2022/01/16 03:14:49;;;;;;;5.00;4.32;;;14.40;88.40;;;;;;2005091;28;20227;-71
2022/01/16 03:15:50;;;;;;;6.30;4.27;;;14.40;88.60;;;;;;1997942;28;20227;-71
2022/01/16 03:16:52;;;;;;;4.63;4.20;;;14.40;88.80;;;;;;1997836;28;20186;-71
2022/01/16 03:22:51;;;;;;;5.35;3.22;;;14.30;88.70;;;;;;1998035;28;20162;-71
2022/01/16 03:23:49;;;;;;;4.93;3.80;;;14.30;88.80;;;;;;1998106;28;20166;-72
2022/01/16 03:24:48;;;;;;;5.93;5.20;;;14.30;88.70;;;;;;1998066;28;20196;-72
2022/01/16 03:25:48;;;;;;;5.50;3.80;;;14.30;88.60;;;;;;1997874;28;20212;-71
2022/01/16 03:26:46;;;;;;;4.93;4.05;;;14.30;88.70;;;;;;1997731;28;20197;-71
2022/01/16 03:27:45;;;;;;;4.53;4.00;;;14.40;88.70;;;;;;1997903;28;20653;-71
2022/01/16 03:28:44;;;;;;;4.33;3.80;;;14.50;89.00;;;;;;1997420;28;20209;-71
2022/01/16 03:29:46;;;;;;;5.63;3.90;;;14.40;88.90;;;;;;1997333;28;20405;-71
2022/01/16 03:30:46;;;;;;;5.72;4.05;;;14.40;88.80;;;;;;1997800;28;20261;-70
2022/01/16 03:31:44;;;;;;;4.97;3.80;;;14.40;89.10;;;;;;1997768;28;20303;-71
2022/01/16 03:32:43;;;;;;;6.07;3.67;;;14.40;89.10;;;;;;1997788;28;20224;-72
2022/01/16 03:33:43;;;;;;;5.40;3.60;;;14.40;88.90;;;;;;1997782;28;20173;-71
2022/01/16 03:34:41;;;;;;;8.95;4.45;;;14.40;88.80;;;;;;1997844;28;20574;-71
2022/01/16 03:35:41;;;;;;;4.07;3.40;;;14.40;89.40;;;;;;1997815;28;20240;-72
2022/01/16 03:36:39;;;;;;;5.85;3.90;;;14.40;88.80;;;;;;1997838;28;20256;-72
2022/01/16 03:37:38;;;;;;;4.57;3.23;;;14.50;88.90;;;;;;2005086;28;20176;-71
2022/01/16 03:38:37;;;;;;;4.83;4.00;;;14.50;88.60;;;;;;1997159;28;20192;-71
2022/01/16 03:39:37;;;;;;;3.40;3.05;;;14.50;88.70;;;;;;1997136;28;20170;-71
2022/01/16 03:40:35;;;;;;;5.53;4.00;;;14.50;88.80;;;;;;1997717;28;20182;-71
2022/01/16 03:41:37;;;;;;;5.83;3.90;;;14.50;88.70;;;;;;1997823;28;20601;-72
2022/01/16 03:42:36;;;;;;;6.10;4.05;;;14.50;88.60;;;;;;1997735;28;20962;-71
2022/01/16 03:43:35;;;;;;;5.50;4.10;;;14.50;88.60;;;;;;1997677;28;20252;-70
2022/01/16 03:44:33;;;;;;;4.30;3.30;;;14.50;88.70;;;;;;1997773;28;20190;-71
2022/01/16 03:45:33;;;;;;;5.00;3.80;;;14.50;88.70;;;;;;1997026;28;20220;-71
2022/01/16 03:46:34;;;;;;;4.60;3.60;;;14.50;88.50;;;;;;1996968;28;20209;-71
2022/01/16 03:47:34;;;;;;;4.65;3.78;;;14.60;88.70;;;;;;1997882;28;20178;-70
2022/01/16 03:48:32;;;;;;;3.97;3.15;;;14.50;88.40;;;;;;1997725;28;20186;-71
2022/01/16 03:49:32;;;;;;;5.40;3.83;;;14.50;88.50;;;;;;1997769;28;20633;-71
2022/01/16 03:50:30;;;;;;;6.38;4.10;;;14.50;88.60;;;;;;2004964;28;20228;-71
2022/01/16 03:51:29;;;;;;;4.73;3.33;;;14.60;88.50;;;;;;2004775;28;20209;-71
2022/01/16 03:52:28;;;;;;;4.80;3.47;;;14.50;88.40;;;;;;1996914;28;20217;-71
2022/01/16 03:53:27;;;;;;;4.73;3.60;;;14.60;88.50;;;;;;1997075;28;20471;-71
2022/01/16 03:54:29;;;;;;;3.97;3.33;;;14.60;88.40;;;;;;1997842;28;20180;-71
2022/01/16 03:55:27;;;;;;;5.90;4.43;;;14.60;88.50;;;;;;2004920;28;20216;-71
2022/01/16 03:56:26;;;;;;;6.07;4.00;;;14.60;88.50;;;;;;1996855;28;20651;-72
2022/01/16 03:57:25;;;;;;;5.13;3.70;;;14.60;88.50;;;;;;1989203;28;20676;-71
2022/01/16 03:58:23;;;;;;;5.70;4.23;;;14.60;88.70;;;;;;1996704;28;20684;-71
2022/01/16 03:59:23;;;;;;;6.20;3.80;;;14.60;88.50;;;;;;1997848;28;20166;-72
2022/01/16 04:00:21;;;;;;;5.80;3.65;;;14.60;88.50;;;;;;1997584;28;20574;-71
2022/01/16 04:01:20;;;;;;;4.87;3.27;;;14.60;88.40;;;;;;1997836;28;20466;-71
2022/01/16 04:02:20;;;;;;;5.45;4.00;;;14.60;88.30;;;;;;1997660;28;20181;-72
2022/01/16 04:03:20;;;;;;;5.53;4.20;;;14.60;88.20;;;;;;1997639;28;20197;-71
2022/01/16 04:04:18;;;;;;;6.18;4.20;;;14.60;88.20;;;;;;1997479;28;20181;-71
2022/01/16 04:05:17;;;;;;;3.80;3.00;;;14.60;88.20;;;;;;1996828;28;20585;-71
2022/01/16 04:06:18;;;;;;;5.77;3.60;;;14.60;88.10;;;;;;1996923;28;20177;-71
2022/01/16 04:07:24;;;;;;;4.20;3.30;;;14.60;88.10;;;;;;1997522;28;20162;-72
2022/01/16 04:08:23;;;;;;;7.05;3.92;;;14.60;88.20;;;;;;2004809;28;20167;-72
2022/01/16 04:09:21;;;;;;;4.83;3.20;;;14.60;88.20;;;;;;1996923;28;20244;-72
2022/01/16 04:10:23;;;;;;;5.33;3.63;;;14.60;88.20;;;;;;1997121;28;20178;-72
2022/01/16 04:11:23;;;;;;;4.97;3.92;;;14.50;88.20;;;;;;1996801;28;20213;-71
2022/01/16 04:12:24;;;;;;;5.22;3.53;;;14.50;88.10;;;;;;1996921;28;20684;-72
2022/01/16 04:13:22;;;;;;;5.57;3.55;;;14.60;88.20;;;;;;1997436;28;20172;-71
2022/01/16 04:15:39;;;;;;;4.50;3.40;;;14.50;88.20;;;;;;1997706;28;20569;-70
2022/01/16 04:16:37;;;;;;;4.53;3.60;;;14.60;88.40;;;;;;1997643;28;20242;-70
2022/01/16 04:17:36;;;;;;;4.67;3.40;;;14.60;88.40;;;;;;1997457;28;20197;-71
2022/01/16 04:18:34;;;;;;;4.77;3.50;;;14.60;88.40;;;;;;1997388;28;20174;-70
2022/01/16 04:19:33;;;;;;;3.80;3.20;;;14.60;88.40;;;;;;2004638;28;20183;-70
2022/01/16 04:20:33;;;;;;;4.43;3.33;;;14.60;88.20;;;;;;2004798;28;20252;-71
2022/01/16 04:21:31;;;;;;;4.90;3.30;;;14.60;88.20;;;;;;1996727;28;20243;-70
2022/01/16 04:22:30;;;;;;;5.00;3.40;;;14.60;88.30;;;;;;1996877;28;20174;-70
2022/01/16 04:23:29;;;;;;;4.60;3.50;;;14.60;88.30;;;;;;1997253;28;20202;-71
2022/01/16 04:24:28;;;;;;;3.80;2.97;;;14.60;88.30;;;;;;1996862;28;20174;-70
2022/01/16 04:25:27;;;;;;;3.47;2.95;;;14.60;88.20;;;;;;1997303;28;20299;-70
2022/01/16 04:26:26;;;;;;;3.80;3.23;;;14.60;88.30;;;;;;1997283;28;20356;-71
2022/01/16 04:27:25;;;;;;;4.53;3.28;;;14.60;88.20;;;;;;1996670;28;20177;-70
2022/01/16 04:28:25;;;;;;;3.93;3.30;;;14.60;88.30;;;;;;1996847;28;20181;-71
2022/01/16 04:29:23;;;;;;;5.03;3.72;;;14.70;88.40;;;;;;1997315;28;20166;-70
2022/01/16 04:30:22;;;;;;;5.57;3.90;;;14.70;88.30;;;;;;1997473;28;20584;-71
2022/01/16 04:31:22;;;;;;;4.90;3.90;;;14.60;88.10;;;;;;1997294;28;20221;-71
2022/01/16 04:32:20;;;;;;;3.60;3.30;;;14.60;88.80;;;;;;1997325;28;20208;-70
2022/01/16 04:33:20;;;;;;;4.40;3.40;;;14.60;88.30;;;;;;1996581;28;20657;-70
2022/01/16 04:34:19;;;;;;;4.15;2.92;;;14.70;88.30;;;;;;1996875;28;20289;-70
2022/01/16 04:35:17;;;;;;;8.03;3.90;;;14.70;88.40;;;;;;1997229;28;20709;-70
2022/01/16 04:36:16;;;;;;;4.63;3.23;;;14.60;88.20;;;;;;1997254;28;20173;-70
2022/01/16 04:37:15;;;;;;;4.53;3.47;;;14.70;88.10;;;;;;1997373;28;20182;-70
2022/01/16 04:38:13;;;;;;;4.87;3.37;;;14.60;88.00;;;;;;1996620;28;20711;-70
2022/01/16 04:39:17;;;;;;;4.00;3.50;;;14.60;88.20;;;;;;1996637;28;20174;-71
2022/01/16 04:40:16;;;;;;;4.57;3.53;;;14.60;88.30;;;;;;1997324;28;20151;-71
2022/01/16 04:43:52;;;;;;;4.25;3.65;;;14.70;88.50;;;;;;1997199;28;20637;-70
2022/01/16 04:44:52;;;;;;;4.00;3.50;;;14.60;88.60;;;;;;1997235;28;20676;-70
2022/01/16 04:45:51;;;;;;;4.90;3.78;;;14.70;88.60;;;;;;1996521;28;20280;-70
2022/01/16 04:46:49;;;;;;;4.37;3.40;;;14.70;88.50;;;;;;1996511;28;20193;-70
2022/01/16 04:47:50;;;;;;;5.00;3.53;;;14.70;88.50;;;;;;1997183;28;20200;-70
2022/01/16 04:48:50;;;;;;;5.90;3.97;;;14.70;88.50;;;;;;1997173;28;20204;-71
2022/01/16 04:49:48;;;;;;;4.85;3.53;;;14.70;88.50;;;;;;1997233;28;20214;-70
2022/01/16 04:50:47;;;;;;;6.13;3.80;;;14.70;88.50;;;;;;1997187;28;20188;-70
2022/01/16 04:51:45;;;;;;;5.27;3.80;;;14.70;88.50;;;;;;1997079;28;20201;-70
2022/01/16 04:52:45;;;;;;;6.57;3.80;;;14.70;88.40;;;;;;1997222;28;20216;-70
2022/01/16 04:53:45;;;;;;;3.95;3.53;;;14.70;88.40;;;;;;1997195;28;20201;-70
2022/01/16 04:54:43;;;;;;;5.40;3.92;;;14.70;88.40;;;;;;1997213;28;20516;-70
2022/01/16 04:55:43;;;;;;;4.27;3.47;;;14.70;88.50;;;;;;2004311;28;20315;-71
2022/01/16 04:56:44;;;;;;;5.43;3.83;;;14.60;88.40;;;;;;2004412;28;20652;-71
2022/01/16 04:57:43;;;;;;;4.55;3.67;;;14.70;88.70;;;;;;1997164;28;20181;-71
2022/01/16 04:58:42;;;;;;;4.13;3.03;;;14.70;88.50;;;;;;1997326;28;20189;-71
2022/01/16 04:59:42;;;;;;;5.57;3.50;;;14.70;88.60;;;;;;1997306;28;20202;-71
2022/01/16 05:00:41;;;;;;;7.10;4.00;;;14.70;88.50;;;;;;1997098;28;20257;-71
2022/01/16 05:01:39;;;;;;;5.93;3.93;;;14.70;88.50;;;;;;1996481;28;20195;-71
2022/01/16 05:02:38;;;;;;;4.50;3.67;;;14.70;88.50;;;;;;1996790;28;20452;-71
2022/01/16 05:03:37;;;;;;;4.90;3.40;;;14.70;88.40;;;;;;1997409;28;20178;-71
2022/01/16 05:04:37;;;;;;;4.65;4.10;;;14.70;88.40;;;;;;1997461;28;20660;-72
2022/01/16 05:05:36;;;;;;;4.55;3.50;;;14.70;88.60;;;;;;1997347;28;20265;-71
2022/01/16 05:06:34;;;;;;;5.30;3.80;;;14.70;88.60;;;;;;1997309;28;20712;-71
2022/01/16 05:07:33;;;;;;;5.73;3.80;;;14.80;88.60;;;;;;1997534;28;20182;-71
2022/01/16 05:08:32;;;;;;;4.70;3.23;;;14.70;88.50;;;;;;1997699;28;20188;-72
2022/01/16 05:09:31;;;;;;;5.88;4.03;;;14.70;88.60;;;;;;1997216;28;20252;-71
2022/01/16 05:10:29;;;;;;;3.47;3.13;;;14.70;88.60;;;;;;1997267;28;20189;-71
2022/01/16 05:11:28;;;;;;;4.80;3.57;;;14.70;88.50;;;;;;1997184;28;20208;-72
2022/01/16 05:12:32;;;;;;;5.40;3.70;;;14.70;88.50;;;;;;1997015;28;20264;-72
2022/01/16 05:17:25;;;;;;;3.90;3.17;;;14.70;88.60;;;;;;1997282;28;20166;-72
2022/01/16 05:18:24;;;;;;;4.90;3.20;;;14.70;88.60;;;;;;1997394;28;20166;-71
2022/01/16 05:19:23;;;;;;;6.30;3.70;;;14.70;88.60;;;;;;1997000;28;20192;-71
2022/01/16 05:20:22;;;;;;;5.30;4.00;;;14.80;88.70;;;;;;1996963;28;20220;-72
2022/01/16 05:21:21;;;;;;;6.80;4.67;;;14.70;88.60;;;;;;1996899;28;20515;-72
2022/01/16 05:22:19;;;;;;;5.22;3.50;;;14.70;88.40;;;;;;1997170;28;20641;-72
2022/01/16 05:23:18;;;;;;;4.03;3.57;;;14.70;88.50;;;;;;1997121;28;20240;-71
2022/01/16 05:24:17;;;;;;;5.43;3.87;;;14.70;88.50;;;;;;1996886;28;20542;-72
2022/01/16 05:25:17;;;;;;;6.50;4.47;;;14.70;88.40;;;;;;1996896;28;20683;-72
2022/01/16 05:26:18;;;;;;;7.10;3.70;;;14.70;88.50;;;;;;2003973;28;20685;-71
2022/01/16 05:27:17;;;;;;;5.35;3.80;;;14.70;88.50;;;;;;2004136;28;20181;-71
2022/01/16 05:28:15;;;;;;;7.07;4.17;;;14.70;88.50;;;;;;1997049;28;20230;-71
2022/01/16 05:29:14;;;;;;;5.77;4.30;;;14.70;88.40;;;;;;1996915;28;20761;-72
2022/01/16 05:30:13;;;;;;;5.37;4.40;;;14.70;88.60;;;;;;1996900;28;20613;-71
2022/01/16 05:31:11;;;;;;;3.93;3.20;;;14.70;88.50;;;;;;1996855;28;20264;-72
2022/01/16 05:32:10;;;;;;;4.27;3.33;;;14.80;88.50;;;;;;1996887;28;20637;-71
2022/01/16 05:33:08;;;;;;;5.20;3.57;;;14.80;88.40;;;;;;1996994;28;20170;-71
2022/01/16 05:34:07;;;;;;;6.10;4.33;;;14.80;88.50;;;;;;1996901;28;20589;-72
2022/01/16 05:35:07;;;;;;;5.43;3.60;;;14.70;88.40;;;;;;1996890;28;20245;-72
2022/01/16 05:36:06;;;;;;;5.25;3.78;;;14.80;88.60;;;;;;1996846;28;20180;-71
2022/01/16 05:37:05;;;;;;;6.90;4.00;;;14.80;88.50;;;;;;2004369;28;20256;-72
2022/01/16 05:38:03;;;;;;;6.10;3.90;;;14.80;88.50;;;;;;2004083;28;20976;-72
2022/01/16 05:39:02;;;;;;;5.80;4.10;;;14.70;88.40;;;;;;1997403;28;20643;-72
2022/01/16 05:40:00;;;;;;;4.60;3.57;;;14.80;88.60;;;;;;1996824;28;20347;-72
2022/01/16 05:40:59;;;;;;;5.57;4.13;;;14.80;88.60;;;;;;1996783;28;20257;-72
2022/01/16 05:41:58;;;;;;;5.80;3.70;;;14.80;88.70;;;;;;1996804;28;20637;-71
2022/01/16 05:42:58;;;;;;;5.83;3.97;;;14.80;88.50;;;;;;1996760;28;20162;-72
2022/01/16 05:43:57;;;;;;;4.85;3.58;;;14.80;88.60;;;;;;1996755;28;20180;-72
2022/01/16 05:44:55;;;;;;;5.17;3.50;;;14.70;88.50;;;;;;1996702;28;20189;-71
2022/01/16 05:45:54;;;;;;;4.80;3.60;;;14.80;88.60;;;;;;2004167;28;20266;-72
2022/01/16 05:46:52;;;;;;;4.27;3.63;;;14.80;88.60;;;;;;2003890;28;20303;-71
2022/01/16 05:47:51;;;;;;;4.57;3.70;;;14.80;88.80;;;;;;1996515;28;20177;-72
2022/01/16 05:48:50;;;;;;;5.07;4.40;;;14.70;88.60;;;;;;1996865;28;20174;-72
2022/01/16 05:49:49;;;;;;;5.22;3.75;;;14.70;88.70;;;;;;1996781;28;20169;-71
2022/01/16 05:50:47;;;;;;;4.70;3.67;;;14.80;88.80;;;;;;1996848;28;20178;-72
2022/01/16 05:51:46;;;;;;;4.93;3.60;;;14.70;88.70;;;;;;1996625;28;20205;-72
2022/01/16 05:52:44;;;;;;;5.30;3.80;;;14.70;88.90;;;;;;1995755;28;20198;-71
2022/01/16 05:53:46;;;;;;;4.10;3.13;;;14.80;89.00;;;;;;1996175;28;20646;-72